Aérodrome :
LOGIN :

S'inscrire | Disclaimer

   EN    FR    IT 

 










Légende :    VFR   VFR Marginal   IFR   IFR Intensif   IFR Très Intensif
Visi : 
Plafond : 
>= 8 km
>= 3000ft
5 à 8 km
1000 à 3000 ft
1500m à 5 km
500 à 1000 ft
800 à 1500m
200 à 500 ft
< 800m
< 200 ft
Symboles :   Orages  Brouillard  Fortes neiges  Fortes précipitations  Vent > 20 kt
SIGMETs :   Divers  Orages  Givrage  Turbulence  Onde Orograph.  Cendres Volcan.







- Altitude de l'aérodrome : 220 ft
- Code IATA : CWL
- Voir les cartes d'approche


EGFF - Cardiff Rhoose

DERNIER METAR :
  • 230750Z AUTO 27017G28KT 9999 BKN023 BKN028 OVC034 16/13 Q1017

METARs EXPIRÉS :
  • 230720Z AUTO 27017G28KT 9999 OVC025 17/13 Q1016
  • 230650Z AUTO 26013KT 9999 OVC026 16/12 Q1016
  • 230620Z AUTO 26015KT 9999 BKN030 16/13 Q1016
  • 230550Z AUTO 27014KT 9999 BKN031 16/12 Q1016

TAF TAF EGFF
Valide du 23 à 06h jusqu'au 24 à 06h UTC


230455Z 2306/2406 26015KT 9999 SCT025
TEMPO 2306/2320 26018G28KT BKN014
PROB30
TEMPO 2315/2320 6000 -RADZ BKN008
BECMG 2320/2323 6000 -RADZ BKN006
PROB30
TEMPO 2320/2406 4000 RADZ BR BKN004
PROB30
TEMPO 2402/2406 1400 BKN001
ATIS : +44 1446 729 319
Pas de NOTAMs connus pour ce terrain.



MET'MAP, la Météo Aéronautique d'un coup d'oeil ! - Copyright ORBIFLY Décembre 2007 - Disclaimer

ORBIFLY MET'MAP TEAM :

Programmation & Développement : Alexandra Zaïnal
Conception & Développement : Baudouin d'Aumeries
Co-Programmation & Développement : Marc-Olivier Méhu
Soutien technique & logistique : Manuel Goepfert

Contact : metmap@orbifly.com




SOURCES & CREDITS :

   NOAA